Time;durP1;ratioP1;P1;durP2;ratioP2;P2;SDS_P1;SDS_P2;PMS_P1;PMS_P2;Temp;Humidity;BMP_temperature;BMP_pressure;BME280_temperature;BME280_humidity;BME280_pressure;Samples;Min_cycle;Max_cycle;Signal;HPM_P1;HPM_P2
2024/01/31 00:01:38;;;;;;;8.30;0.50;;;6.00;99.90;;;;;;5073920;28;20088;-64
2024/01/31 00:04:06;;;;;;;2.60;0.37;;;6.00;99.90;;;;;;5055780;28;20541;-65
2024/01/31 00:06:32;;;;;;;4.85;0.40;;;6.00;99.90;;;;;;5073747;28;20037;-63
2024/01/31 00:08:57;;;;;;;3.87;0.50;;;6.00;99.90;;;;;;5073876;28;20055;-63
2024/01/31 00:11:28;;;;;;;3.23;0.53;;;6.00;99.90;;;;;;5073616;28;20048;-63
2024/01/31 00:13:55;;;;;;;4.57;1.38;;;6.00;99.90;;;;;;5073656;28;20471;-63
2024/01/31 00:16:21;;;;;;;3.78;0.75;;;6.00;99.90;;;;;;5073484;28;20384;-63
2024/01/31 00:18:47;;;;;;;3.07;0.37;;;6.10;99.90;;;;;;5073706;28;20158;-63
2024/01/31 00:21:12;;;;;;;4.73;0.50;;;6.00;99.90;;;;;;5073609;28;20044;-63
2024/01/31 00:23:38;;;;;;;3.53;0.50;;;6.00;99.90;;;;;;5073822;28;20040;-64
2024/01/31 00:26:04;;;;;;;1.93;0.47;;;6.00;99.90;;;;;;5073602;28;20044;-64
2024/01/31 00:28:29;;;;;;;5.20;0.63;;;6.00;99.90;;;;;;5073574;28;20044;-64
2024/01/31 00:30:55;;;;;;;1.77;0.20;;;6.00;99.90;;;;;;5073534;28;20052;-63
2024/01/31 00:33:21;;;;;;;3.20;0.40;;;6.00;99.90;;;;;;5055627;28;20041;-64
2024/01/31 00:35:46;;;;;;;3.70;0.50;;;6.00;99.90;;;;;;5073474;28;20044;-64
2024/01/31 00:38:12;;;;;;;1.80;0.20;;;6.00;99.90;;;;;;5073500;28;20041;-64
2024/01/31 00:40:38;;;;;;;2.57;0.40;;;6.00;99.90;;;;;;5073405;28;20098;-63
2024/01/31 00:43:03;;;;;;;1.90;0.30;;;6.00;99.90;;;;;;5055425;28;20048;-64
2024/01/31 00:45:30;;;;;;;2.57;0.43;;;6.00;99.90;;;;;;5073344;28;20127;-64
2024/01/31 00:47:55;;;;;;;5.30;0.40;;;6.00;99.90;;;;;;5038900;28;20057;-63
2024/01/31 00:50:21;;;;;;;1.73;0.20;;;6.00;99.90;;;;;;5055648;28;20086;-63
2024/01/31 00:52:47;;;;;;;3.37;0.50;;;6.00;99.90;;;;;;5057011;28;20045;-64
2024/01/31 00:55:13;;;;;;;3.73;0.20;;;6.00;99.90;;;;;;5076982;28;20052;-63
2024/01/31 00:57:39;;;;;;;4.75;0.40;;;6.00;99.90;;;;;;5077112;28;20468;-64
2024/01/31 01:00:05;;;;;;;2.07;0.20;;;6.00;99.90;;;;;;5077073;28;20130;-63
2024/01/31 01:02:35;;;;;;;5.57;0.52;;;6.00;99.90;;;;;;5059391;28;20059;-63
2024/01/31 01:05:01;;;;;;;3.03;0.40;;;5.90;99.90;;;;;;5077204;28;20106;-63
2024/01/31 01:07:27;;;;;;;2.83;0.43;;;6.00;99.90;;;;;;5076936;28;20044;-63
2024/01/31 01:09:52;;;;;;;4.17;0.37;;;6.00;99.90;;;;;;5077025;28;20425;-63
2024/01/31 01:12:18;;;;;;;5.80;0.53;;;6.00;99.90;;;;;;5076899;28;20411;-64
2024/01/31 01:14:43;;;;;;;3.67;0.30;;;6.00;99.90;;;;;;5076763;28;20080;-63
2024/01/31 01:17:09;;;;;;;3.13;0.40;;;6.00;99.90;;;;;;5076582;28;20105;-64
2024/01/31 01:19:35;;;;;;;3.53;0.30;;;6.00;99.90;;;;;;5076840;28;20052;-64
2024/01/31 01:22:01;;;;;;;1.60;0.20;;;6.00;99.90;;;;;;5076799;28;20095;-64
2024/01/31 01:24:27;;;;;;;2.38;0.40;;;6.00;99.90;;;;;;5059103;28;20131;-64
2024/01/31 01:26:52;;;;;;;1.93;0.20;;;6.00;99.90;;;;;;5076550;28;20128;-64
2024/01/31 01:29:18;;;;;;;3.40;0.30;;;5.90;99.90;;;;;;5076419;28;20090;-64
2024/01/31 01:31:43;;;;;;;2.27;0.33;;;6.00;99.90;;;;;;5076388;28;20094;-64
2024/01/31 01:34:11;;;;;;;1.63;0.30;;;6.00;99.90;;;;;;5076453;28;20049;-64
2024/01/31 01:36:37;;;;;;;1.02;0.25;;;6.00;99.90;;;;;;5041939;28;20040;-64
2024/01/31 01:39:03;;;;;;;2.83;0.43;;;5.90;99.90;;;;;;5076373;28;20053;-64
2024/01/31 01:41:29;;;;;;;2.72;0.40;;;5.90;99.90;;;;;;5058682;28;20071;-63
2024/01/31 01:43:55;;;;;;;4.90;0.37;;;5.90;99.90;;;;;;5076358;28;20044;-62
2024/01/31 01:46:22;;;;;;;4.67;0.40;;;5.90;99.90;;;;;;5076242;28;20044;-64
2024/01/31 01:48:50;;;;;;;1.95;0.30;;;5.90;99.90;;;;;;5076205;28;20174;-64
2024/01/31 01:51:20;;;;;;;2.58;0.30;;;5.90;99.90;;;;;;5076275;28;20123;-64
2024/01/31 01:53:47;;;;;;;3.75;0.30;;;5.80;99.90;;;;;;5076080;28;20123;-64
2024/01/31 01:56:17;;;;;;;1.08;0.22;;;5.80;99.90;;;;;;5058272;28;20044;-64
2024/01/31 01:58:44;;;;;;;2.97;0.40;;;5.80;99.90;;;;;;5075947;28;20044;-64
2024/01/31 02:01:12;;;;;;;;;;;5.80;99.90;;;;;;5058575;28;20483;-63
2024/01/31 02:03:37;;;;;;;3.92;0.35;;;5.70;99.90;;;;;;5058205;28;19932;-64
2024/01/31 02:06:03;;;;;;;3.97;0.60;;;5.70;99.90;;;;;;5075471;28;20037;-64
2024/01/31 02:08:29;;;;;;;1.65;0.13;;;5.70;99.90;;;;;;5058154;28;20044;-64
2024/01/31 02:10:56;;;;;;;3.00;0.40;;;5.70;99.90;;;;;;5075871;28;20032;-64
2024/01/31 02:13:22;;;;;;;2.17;0.52;;;5.70;99.90;;;;;;5075802;28;20036;-64
2024/01/31 02:15:55;;;;;;;1.15;0.30;;;5.60;99.90;;;;;;5075511;28;20037;-64
2024/01/31 02:18:26;;;;;;;1.30;0.20;;;5.60;99.90;;;;;;5075667;28;20051;-64
2024/01/31 02:20:52;;;;;;;2.75;0.40;;;5.60;99.90;;;;;;5075964;28;20055;-64
2024/01/31 02:23:18;;;;;;;2.47;0.50;;;5.60;99.90;;;;;;5057974;28;20049;-64
2024/01/31 02:25:45;;;;;;;1.60;0.30;;;5.50;99.90;;;;;;5075339;28;20079;-63
2024/01/31 02:28:11;;;;;;;2.25;0.20;;;5.50;99.90;;;;;;5057470;28;20041;-64
2024/01/31 02:30:36;;;;;;;3.23;0.40;;;5.50;99.90;;;;;;5075580;28;20048;-64
2024/01/31 02:33:02;;;;;;;3.27;0.40;;;5.50;99.90;;;;;;5075620;28;20055;-64
2024/01/31 02:35:32;;;;;;;4.43;0.23;;;5.40;99.90;;;;;;5075353;28;20041;-65
2024/01/31 02:37:58;;;;;;;2.53;0.20;;;5.40;99.90;;;;;;5075175;28;20487;-64
2024/01/31 02:40:24;;;;;;;2.93;0.40;;;5.40;99.90;;;;;;5075052;28;20048;-64
2024/01/31 02:42:50;;;;;;;2.03;0.30;;;5.40;99.90;;;;;;5075241;28;20041;-64
2024/01/31 02:45:16;;;;;;;0.77;0.10;;;5.40;99.90;;;;;;5057329;28;20041;-65
2024/01/31 02:47:41;;;;;;;2.63;0.37;;;5.40;99.90;;;;;;5075246;28;20087;-65
2024/01/31 02:50:07;;;;;;;2.83;0.27;;;5.40;99.90;;;;;;5057266;28;20049;-65
2024/01/31 02:52:33;;;;;;;2.25;0.30;;;5.40;99.90;;;;;;5075035;28;20048;-65
2024/01/31 02:54:59;;;;;;;3.57;0.30;;;5.40;99.90;;;;;;5057367;28;20063;-65
2024/01/31 02:57:25;;;;;;;3.20;0.27;;;5.40;99.90;;;;;;5075165;28;20041;-65
2024/01/31 02:59:51;;;;;;;4.53;0.40;;;5.40;99.90;;;;;;5074964;28;20048;-65
2024/01/31 03:02:17;;;;;;;0.97;0.30;;;5.40;99.90;;;;;;5057062;28;20048;-64
2024/01/31 03:04:43;;;;;;;2.85;0.40;;;5.30;99.90;;;;;;5074791;28;20044;-64
2024/01/31 03:07:12;;;;;;;1.70;0.32;;;5.30;99.90;;;;;;5074623;28;20044;-65
2024/01/31 03:09:38;;;;;;;2.25;0.40;;;5.40;99.90;;;;;;5074533;28;20049;-64
2024/01/31 03:12:05;;;;;;;2.50;0.50;;;5.30;99.90;;;;;;5074460;28;20048;-65
2024/01/31 03:14:35;;;;;;;1.75;0.22;;;5.30;99.90;;;;;;5074698;28;20110;-64
2024/01/31 03:17:01;;;;;;;1.63;0.43;;;5.30;99.90;;;;;;5055448;28;20548;-65
2024/01/31 03:19:29;;;;;;;3.78;0.82;;;5.30;99.90;;;;;;5074454;28;20063;-65
2024/01/31 03:21:55;;;;;;;1.83;0.20;;;5.40;99.90;;;;;;5074461;28;20063;-65
2024/01/31 03:24:24;;;;;;;2.72;0.57;;;5.30;99.90;;;;;;5074159;28;20048;-64
2024/01/31 03:26:49;;;;;;;3.20;0.25;;;5.40;99.90;;;;;;5074309;28;20044;-65
2024/01/31 03:29:15;;;;;;;4.13;0.40;;;5.40;99.90;;;;;;5074307;28;20391;-64
2024/01/31 03:31:41;;;;;;;3.37;0.70;;;5.30;99.90;;;;;;5074242;28;20131;-65
2024/01/31 03:34:06;;;;;;;2.57;0.20;;;5.30;99.90;;;;;;5074377;28;20048;-65
2024/01/31 03:36:33;;;;;;;4.20;0.40;;;5.40;99.90;;;;;;5073900;28;20044;-63
2024/01/31 03:38:59;;;;;;;2.03;0.40;;;5.40;99.90;;;;;;5074075;28;20521;-65
2024/01/31 03:41:25;;;;;;;3.50;0.70;;;5.40;99.90;;;;;;5056486;28;20080;-64
2024/01/31 03:43:51;;;;;;;3.35;0.30;;;5.40;99.90;;;;;;5074104;28;20055;-65
2024/01/31 03:46:16;;;;;;;3.57;0.67;;;5.40;99.90;;;;;;5056492;28;20041;-65
2024/01/31 03:48:42;;;;;;;3.67;0.63;;;5.40;99.90;;;;;;5074043;28;20044;-65
2024/01/31 03:51:21;;;;;;;3.97;0.50;;;5.40;99.90;;;;;;5074160;28;20044;-64
2024/01/31 03:53:47;;;;;;;1.08;0.30;;;5.40;99.90;;;;;;5074020;28;20384;-65
2024/01/31 03:56:13;;;;;;;3.22;0.40;;;5.40;99.90;;;;;;5073769;28;20033;-65
2024/01/31 03:58:39;;;;;;;4.07;0.57;;;5.40;99.90;;;;;;5073858;28;20446;-64
2024/01/31 04:01:06;;;;;;;2.05;0.40;;;5.40;99.90;;;;;;5056051;28;20047;-65
2024/01/31 04:03:32;;;;;;;3.42;0.40;;;5.40;99.90;;;;;;5073756;28;20056;-65
2024/01/31 04:05:57;;;;;;;2.60;0.30;;;5.40;99.90;;;;;;5073590;28;20553;-64
2024/01/31 04:08:23;;;;;;;1.60;0.20;;;5.40;99.90;;;;;;5073946;28;20044;-65
2024/01/31 04:10:49;;;;;;;0.90;0.30;;;5.40;99.90;;;;;;5039520;28;20052;-65
2024/01/31 04:13:14;;;;;;;4.40;0.67;;;5.40;99.90;;;;;;5073660;28;20101;-64
2024/01/31 04:15:40;;;;;;;1.17;0.20;;;5.40;99.90;;;;;;5073326;28;20093;-64
2024/01/31 04:18:07;;;;;;;1.07;0.23;;;5.40;99.90;;;;;;5073780;28;20049;-65
2024/01/31 04:20:40;;;;;;;2.83;0.38;;;5.40;99.90;;;;;;5073613;28;20494;-64
2024/01/31 04:23:06;;;;;;;1.75;0.50;;;5.40;99.90;;;;;;5073734;28;20045;-65
2024/01/31 04:25:32;;;;;;;4.72;0.68;;;5.30;99.90;;;;;;5073669;28;20044;-65
2024/01/31 04:27:58;;;;;;;2.53;0.30;;;5.40;99.90;;;;;;5073345;28;20045;-65
2024/01/31 04:30:24;;;;;;;3.40;0.70;;;5.30;99.90;;;;;;5073375;28;20513;-64
2024/01/31 04:32:49;;;;;;;1.67;0.37;;;5.30;99.90;;;;;;5073477;28;20049;-65
2024/01/31 04:35:15;;;;;;;7.27;0.53;;;5.30;99.90;;;;;;5073247;28;20037;-64
2024/01/31 04:37:41;;;;;;;5.13;0.30;;;5.30;99.90;;;;;;5073518;28;20067;-65
2024/01/31 04:40:07;;;;;;;2.07;0.40;;;5.20;99.90;;;;;;5055871;28;20052;-64
2024/01/31 04:42:33;;;;;;;2.53;0.30;;;5.20;99.90;;;;;;5055947;28;20053;-64
2024/01/31 04:44:58;;;;;;;0.67;0.20;;;5.20;99.90;;;;;;5073308;28;20055;-65
2024/01/31 04:47:25;;;;;;;2.40;0.40;;;5.10;99.90;;;;;;5055396;28;20128;-65
2024/01/31 04:49:51;;;;;;;;;;;5.10;99.90;;;;;;5073515;28;20570;-65
2024/01/31 04:52:17;;;;;;;2.78;0.50;;;5.00;99.90;;;;;;5073172;28;20366;-64
2024/01/31 04:54:43;;;;;;;4.50;0.53;;;5.00;99.90;;;;;;5055525;28;20048;-65
2024/01/31 04:57:08;;;;;;;3.90;0.40;;;4.90;99.90;;;;;;5055408;28;20101;-64
2024/01/31 04:59:42;;;;;;;1.67;0.40;;;4.90;99.90;;;;;;5073271;28;20049;-65
2024/01/31 05:02:08;;;;;;;2.33;0.40;;;4.90;99.90;;;;;;5073174;28;20045;-64
2024/01/31 05:04:34;;;;;;;2.72;0.20;;;4.80;99.90;;;;;;5072933;28;20106;-64
2024/01/31 05:07:00;;;;;;;0.73;0.30;;;4.80;99.90;;;;;;5073217;28;20049;-64
2024/01/31 05:09:25;;;;;;;1.97;0.30;;;4.80;99.90;;;;;;5073055;28;20051;-65
2024/01/31 05:11:51;;;;;;;1.67;0.23;;;4.80;99.90;;;;;;5073175;28;20047;-63
2024/01/31 05:14:17;;;;;;;2.27;0.30;;;4.80;99.90;;;;;;5073045;28;20052;-63
2024/01/31 05:16:43;;;;;;;1.88;0.43;;;4.80;99.90;;;;;;5072713;28;20098;-63
2024/01/31 05:19:11;;;;;;;2.40;0.40;;;4.80;99.90;;;;;;5072837;28;20060;-63
2024/01/31 05:21:47;;;;;;;3.85;0.20;;;4.80;99.90;;;;;;5073220;28;20088;-63
2024/01/31 05:24:14;;;;;;;4.95;0.50;;;4.70;99.90;;;;;;5072835;28;20044;-63
2024/01/31 05:26:40;;;;;;;1.15;0.22;;;4.80;99.90;;;;;;5072772;28;20106;-62
2024/01/31 05:29:06;;;;;;;2.03;0.30;;;4.80;99.90;;;;;;5072826;28;20499;-63
2024/01/31 05:31:32;;;;;;;2.67;0.30;;;4.80;99.90;;;;;;5072829;28;20086;-63
2024/01/31 05:33:57;;;;;;;2.73;0.50;;;4.70;99.90;;;;;;5072740;28;20132;-62
2024/01/31 05:36:23;;;;;;;1.50;0.37;;;4.80;99.90;;;;;;5072816;28;20036;-64
2024/01/31 05:38:49;;;;;;;2.67;0.40;;;4.80;99.90;;;;;;5073132;28;20110;-63
2024/01/31 05:41:15;;;;;;;1.40;0.25;;;4.80;99.90;;;;;;5076315;28;20056;-63
2024/01/31 05:43:41;;;;;;;2.30;0.67;;;4.80;99.90;;;;;;5076269;28;20048;-63
2024/01/31 05:46:06;;;;;;;3.10;0.43;;;4.80;99.90;;;;;;5076268;28;20487;-63
2024/01/31 05:48:32;;;;;;;5.37;0.37;;;4.80;99.90;;;;;;5076404;28;20052;-63
2024/01/31 05:50:58;;;;;;;2.03;0.30;;;4.80;99.90;;;;;;5076258;28;20388;-63
2024/01/31 05:53:23;;;;;;;4.53;0.40;;;4.80;99.90;;;;;;5076205;28;20084;-63
2024/01/31 05:55:49;;;;;;;4.87;0.60;;;4.80;99.90;;;;;;5076156;28;20056;-63
2024/01/31 05:58:15;;;;;;;2.90;0.60;;;4.80;99.90;;;;;;5076224;28;20088;-63
2024/01/31 06:00:40;;;;;;;6.40;0.80;;;4.80;99.90;;;;;;5076067;28;20131;-63
2024/01/31 06:03:06;;;;;;;1.63;0.30;;;4.80;99.90;;;;;;5076118;28;20047;-63
2024/01/31 06:05:32;;;;;;;5.50;0.40;;;4.90;99.90;;;;;;5058227;28;20141;-63
2024/01/31 06:07:58;;;;;;;4.07;0.50;;;4.90;99.90;;;;;;5076035;28;20055;-63
2024/01/31 06:10:24;;;;;;;2.17;0.20;;;4.90;99.90;;;;;;5075860;28;20045;-63
2024/01/31 06:12:50;;;;;;;2.42;0.40;;;4.90;99.90;;;;;;5075774;28;20049;-63
2024/01/31 06:15:16;;;;;;;1.63;0.40;;;4.90;99.90;;;;;;5075593;28;20103;-63
2024/01/31 06:17:43;;;;;;;3.35;0.43;;;4.90;99.90;;;;;;5075847;28;20605;-63
2024/01/31 06:20:10;;;;;;;2.10;0.40;;;4.90;99.90;;;;;;5041464;28;20143;-63
2024/01/31 06:22:36;;;;;;;2.10;0.32;;;5.00;99.90;;;;;;5075668;28;20094;-62
2024/01/31 06:25:02;;;;;;;2.63;0.40;;;5.00;99.90;;;;;;5057836;28;20056;-62
2024/01/31 06:27:28;;;;;;;3.40;0.50;;;5.00;99.90;;;;;;5075579;28;20101;-63
2024/01/31 06:29:53;;;;;;;1.57;0.37;;;5.00;99.90;;;;;;5057899;28;20049;-63
2024/01/31 06:32:22;;;;;;;2.53;0.30;;;5.00;99.90;;;;;;5075577;28;20139;-63
2024/01/31 06:34:48;;;;;;;3.33;0.50;;;5.00;99.90;;;;;;5075461;28;20483;-61
2024/01/31 06:37:14;;;;;;;2.63;0.37;;;5.10;99.90;;;;;;5075280;28;20036;-63
2024/01/31 06:39:39;;;;;;;3.07;0.47;;;5.00;99.90;;;;;;5057586;28;20063;-64
2024/01/31 06:42:07;;;;;;;3.10;0.47;;;5.00;99.90;;;;;;5075231;28;20443;-65
2024/01/31 06:44:33;;;;;;;2.50;0.60;;;5.10;99.90;;;;;;5075055;28;20483;-65
2024/01/31 06:46:58;;;;;;;3.13;0.70;;;5.10;99.90;;;;;;5057840;28;20189;-65
2024/01/31 06:49:24;;;;;;;2.57;0.40;;;5.10;99.90;;;;;;5075179;28;20715;-65
2024/01/31 06:51:50;;;;;;;3.13;0.60;;;5.00;99.90;;;;;;5074948;28;20071;-65
2024/01/31 06:54:17;;;;;;;3.47;0.40;;;5.10;99.90;;;;;;5075018;28;20044;-65
2024/01/31 06:56:42;;;;;;;3.90;0.70;;;5.10;99.90;;;;;;5074931;28;20090;-65
2024/01/31 06:59:08;;;;;;;6.57;0.77;;;5.10;99.90;;;;;;5057161;28;20048;-65
2024/01/31 07:01:34;;;;;;;2.63;0.50;;;5.10;99.90;;;;;;5075391;28;20036;-65
2024/01/31 07:04:00;;;;;;;6.17;0.70;;;5.10;99.90;;;;;;5074727;28;20048;-65
2024/01/31 07:06:26;;;;;;;4.80;0.70;;;5.10;99.90;;;;;;5074741;28;20041;-65
2024/01/31 07:08:51;;;;;;;3.53;0.60;;;5.10;99.90;;;;;;5074679;28;20455;-65
2024/01/31 07:11:17;;;;;;;2.30;0.60;;;5.10;99.90;;;;;;5056757;28;20053;-65
2024/01/31 07:13:43;;;;;;;3.53;0.60;;;5.10;99.90;;;;;;5074378;28;20090;-66
2024/01/31 07:16:12;;;;;;;3.67;0.57;;;5.10;99.90;;;;;;5074472;28;20356;-65
2024/01/31 07:18:41;;;;;;;4.75;0.60;;;5.10;99.90;;;;;;5074529;28;20173;-66
2024/01/31 07:21:08;;;;;;;2.53;0.70;;;5.10;99.90;;;;;;5074470;28;20564;-66
2024/01/31 07:23:35;;;;;;;;;;;5.10;99.90;;;;;;5074759;28;20047;-66
2024/01/31 07:26:00;;;;;;;4.78;0.55;;;5.10;99.90;;;;;;5074287;28;19971;-65
2024/01/31 07:28:26;;;;;;;2.17;0.57;;;5.10;99.90;;;;;;5074255;28;20076;-65
2024/01/31 07:30:52;;;;;;;2.37;0.70;;;5.20;99.90;;;;;;5074368;28;20047;-66
2024/01/31 07:33:19;;;;;;;1.80;0.30;;;5.20;99.90;;;;;;5074143;28;20131;-66
2024/01/31 07:35:45;;;;;;;4.95;0.50;;;5.10;99.90;;;;;;5074429;28;20127;-66
2024/01/31 07:38:11;;;;;;;3.83;0.60;;;5.20;99.90;;;;;;5074453;28;20575;-65
2024/01/31 07:40:37;;;;;;;2.87;0.60;;;5.20;99.90;;;;;;5074040;28;20079;-65
2024/01/31 07:43:03;;;;;;;5.10;0.60;;;5.20;99.90;;;;;;5074111;28;20481;-66
2024/01/31 07:45:29;;;;;;;4.00;0.67;;;5.20;99.90;;;;;;5074155;28;20044;-66
2024/01/31 07:47:56;;;;;;;3.30;0.80;;;5.20;99.90;;;;;;5074489;28;20067;-65
2024/01/31 07:50:22;;;;;;;4.53;0.80;;;5.20;99.90;;;;;;5074040;28;20037;-66
2024/01/31 07:52:48;;;;;;;4.25;1.02;;;5.20;99.90;;;;;;5056333;28;20063;-66
2024/01/31 07:55:14;;;;;;;4.07;0.83;;;5.20;99.90;;;;;;5073874;28;20040;-65
2024/01/31 07:57:40;;;;;;;3.33;0.80;;;5.20;99.90;;;;;;5073633;28;20111;-65
2024/01/31 08:00:06;;;;;;;2.47;0.70;;;5.30;99.90;;;;;;5056317;28;20498;-65
2024/01/31 08:02:33;;;;;;;2.92;0.70;;;5.20;99.90;;;;;;5073457;28;20372;-65
2024/01/31 08:04:58;;;;;;;5.28;0.70;;;5.20;99.90;;;;;;5056166;28;20052;-65
2024/01/31 08:07:24;;;;;;;2.43;0.80;;;5.20;99.90;;;;;;5073801;28;20040;-66
2024/01/31 08:09:50;;;;;;;4.10;0.88;;;5.20;99.90;;;;;;5073607;28;20049;-64
2024/01/31 08:12:17;;;;;;;3.43;0.70;;;5.20;99.90;;;;;;5073829;28;20044;-65
2024/01/31 08:14:43;;;;;;;3.25;0.57;;;5.20;99.90;;;;;;5073699;28;20075;-65
2024/01/31 08:17:10;;;;;;;1.92;0.75;;;5.30;99.90;;;;;;5073481;28;20139;-65
2024/01/31 08:19:36;;;;;;;;;;;5.30;99.90;;;;;;5056248;28;20055;-65
2024/01/31 08:22:02;;;;;;;2.88;0.80;;;5.30;99.90;;;;;;5073536;28;19920;-65
2024/01/31 08:24:28;;;;;;;6.88;1.20;;;5.30;99.90;;;;;;5073308;28;20045;-65
2024/01/31 08:26:53;;;;;;;3.40;1.00;;;5.30;99.90;;;;;;5073665;28;20060;-65
2024/01/31 08:29:20;;;;;;;3.23;1.40;;;5.30;99.90;;;;;;5055782;28;20050;-65
2024/01/31 08:31:46;;;;;;;3.10;0.88;;;5.30;99.90;;;;;;5073598;28;20075;-66
2024/01/31 08:34:12;;;;;;;4.40;1.00;;;5.30;99.90;;;;;;5073455;28;20459;-66
2024/01/31 08:36:38;;;;;;;3.85;0.82;;;5.40;99.90;;;;;;5073501;28;20044;-66
2024/01/31 08:39:04;;;;;;;5.50;1.20;;;5.40;99.90;;;;;;5073385;28;20376;-65
2024/01/31 08:41:29;;;;;;;2.07;0.77;;;5.40;99.90;;;;;;5073204;28;20066;-65
2024/01/31 08:43:55;;;;;;;3.73;0.73;;;5.40;99.90;;;;;;5055900;28;20048;-66
2024/01/31 08:46:21;;;;;;;2.83;0.93;;;5.40;99.90;;;;;;5055668;28;20070;-66
2024/01/31 08:48:46;;;;;;;2.90;0.77;;;5.50;99.90;;;;;;5055603;28;20052;-65
2024/01/31 08:51:14;;;;;;;4.03;1.20;;;5.50;99.90;;;;;;5073237;28;20051;-65
2024/01/31 08:53:42;;;;;;;5.35;1.17;;;5.50;99.90;;;;;;5073290;28;20109;-65
2024/01/31 08:56:09;;;;;;;3.65;1.33;;;5.50;99.90;;;;;;5073165;28;20479;-65
2024/01/31 08:58:35;;;;;;;3.70;1.27;;;5.50;99.90;;;;;;5055443;28;20052;-65
2024/01/31 09:01:00;;;;;;;4.00;1.20;;;5.50;99.90;;;;;;5073686;28;20052;-65
2024/01/31 09:03:26;;;;;;;2.90;1.33;;;5.50;99.90;;;;;;5073232;28;20084;-65
2024/01/31 09:05:53;;;;;;;2.00;1.02;;;5.60;99.90;;;;;;5073135;28;20173;-65
2024/01/31 09:08:20;;;;;;;3.20;1.30;;;5.60;99.90;;;;;;5072999;28;20139;-65
2024/01/31 09:10:46;;;;;;;3.78;1.75;;;5.60;99.90;;;;;;5055535;28;20053;-65
2024/01/31 09:13:11;;;;;;;4.87;1.53;;;5.60;99.90;;;;;;5073118;28;20056;-65
2024/01/31 09:15:37;;;;;;;6.83;1.80;;;5.60;99.90;;;;;;5075607;28;20391;-64
2024/01/31 09:18:03;;;;;;;3.43;1.57;;;5.70;99.90;;;;;;5077060;28;20086;-66
2024/01/31 09:20:30;;;;;;;4.20;1.63;;;5.70;99.90;;;;;;5076737;28;20060;-66
2024/01/31 09:22:56;;;;;;;5.07;1.58;;;5.70;99.90;;;;;;5076712;28;20044;-65
2024/01/31 09:25:21;;;;;;;5.67;1.53;;;5.80;99.90;;;;;;5076795;28;20395;-65
2024/01/31 09:27:47;;;;;;;6.17;1.70;;;5.70;99.90;;;;;;5076651;28;20498;-66
2024/01/31 09:30:13;;;;;;;5.23;1.77;;;5.80;99.90;;;;;;5077041;28;20048;-65
2024/01/31 09:32:39;;;;;;;3.40;1.60;;;5.80;99.90;;;;;;5059200;28;20058;-65
2024/01/31 09:35:06;;;;;;;4.73;1.73;;;5.80;99.90;;;;;;5058850;28;20399;-67
2024/01/31 09:37:34;;;;;;;4.78;1.83;;;5.80;99.90;;;;;;5076437;28;20041;-65
2024/01/31 09:40:00;;;;;;;4.65;1.92;;;5.80;99.90;;;;;;5076478;28;20045;-64
2024/01/31 09:42:29;;;;;;;6.40;2.23;;;5.90;99.90;;;;;;5076485;28;20051;-66
2024/01/31 09:44:58;;;;;;;4.28;1.88;;;5.90;99.90;;;;;;5076360;28;20402;-65
2024/01/31 09:47:27;;;;;;;5.85;2.38;;;5.90;99.90;;;;;;5076424;28;20090;-64
2024/01/31 09:49:55;;;;;;;5.18;2.45;;;5.90;99.90;;;;;;5076038;28;20043;-65
2024/01/31 09:52:27;;;;;;;5.55;2.75;;;5.80;99.90;;;;;;5076030;28;20426;-65
2024/01/31 09:54:56;;;;;;;7.68;2.50;;;5.80;99.90;;;;;;5076378;28;20380;-67
2024/01/31 09:57:23;;;;;;;5.28;2.60;;;5.90;99.90;;;;;;5058188;28;20102;-65
2024/01/31 09:59:49;;;;;;;7.75;3.60;;;5.90;99.90;;;;;;5075988;28;20147;-67
2024/01/31 10:02:16;;;;;;;7.43;3.33;;;5.90;99.90;;;;;;5075972;28;20080;-67
2024/01/31 10:04:48;;;;;;;;;;;5.90;99.90;;;;;;5058444;28;20048;-66
2024/01/31 10:07:25;;;;;;;8.13;3.53;;;5.90;99.90;;;;;;5058102;28;19925;-66
2024/01/31 10:09:53;;;;;;;5.95;3.15;;;5.90;99.90;;;;;;5075922;28;20094;-66
2024/01/31 10:12:20;;;;;;;7.32;3.83;;;5.90;99.90;;;;;;5075771;28;20082;-66
2024/01/31 10:14:53;;;;;;;8.48;3.95;;;5.90;99.90;;;;;;5075698;28;20510;-68
2024/01/31 10:17:22;;;;;;;6.70;3.75;;;6.00;99.90;;;;;;5058164;28;20057;-66
2024/01/31 10:19:49;;;;;;;7.68;3.72;;;6.00;99.90;;;;;;5075669;28;20046;-67
2024/01/31 10:22:14;;;;;;;9.20;3.88;;;6.00;99.90;;;;;;5058163;28;20092;-67
2024/01/31 10:24:45;;;;;;;8.40;4.37;;;6.00;99.90;;;;;;5075436;28;20106;-65
2024/01/31 10:27:10;;;;;;;7.95;4.10;;;6.00;99.90;;;;;;5075434;28;20040;-65
2024/01/31 10:29:39;;;;;;;7.37;3.90;;;6.00;99.90;;;;;;5075616;28;20131;-65
2024/01/31 10:32:06;;;;;;;7.80;4.10;;;6.00;99.90;;;;;;5075774;28;20093;-66
2024/01/31 10:34:36;;;;;;;9.35;4.25;;;6.10;99.90;;;;;;5075507;28;20101;-63
2024/01/31 10:37:02;;;;;;;8.05;4.18;;;6.10;99.90;;;;;;5075339;28;20043;-63
2024/01/31 10:39:28;;;;;;;8.88;4.43;;;6.10;99.90;;;;;;5075415;28;20499;-64
2024/01/31 10:41:54;;;;;;;9.20;4.50;;;6.20;99.90;;;;;;5075271;28;20090;-63
2024/01/31 10:44:21;;;;;;;8.15;4.30;;;6.20;99.90;;;;;;5057639;28;20178;-63
2024/01/31 10:46:47;;;;;;;8.38;3.80;;;6.20;99.90;;;;;;5075293;28;20102;-63
2024/01/31 10:49:16;;;;;;;6.95;3.70;;;6.20;99.90;;;;;;5057335;28;20128;-63
2024/01/31 10:51:55;;;;;;;8.55;3.97;;;6.20;99.90;;;;;;5075013;28;20040;-63
2024/01/31 10:54:25;;;;;;;9.27;4.22;;;6.20;99.90;;;;;;5074900;28;20055;-64
2024/01/31 10:56:52;;;;;;;8.30;3.75;;;6.30;99.90;;;;;;5074894;28;20040;-63
2024/01/31 10:59:18;;;;;;;8.48;4.03;;;6.40;99.90;;;;;;5074901;28;20044;-63
2024/01/31 11:01:58;;;;;;;7.80;3.53;;;6.40;99.90;;;;;;5041083;28;20043;-63
2024/01/31 11:04:24;;;;;;;8.02;3.63;;;6.40;99.90;;;;;;5075015;28;20067;-63
2024/01/31 11:06:50;;;;;;;7.87;3.90;;;6.50;99.90;;;;;;5074672;28;20499;-63
2024/01/31 11:09:24;;;;;;;8.27;3.75;;;6.50;99.90;;;;;;5056524;28;20094;-64
2024/01/31 11:12:08;;;;;;;6.28;3.38;;;6.50;99.90;;;;;;5074958;28;20070;-63
2024/01/31 11:14:34;;;;;;;6.63;3.13;;;6.50;99.90;;;;;;5074504;28;20052;-63
2024/01/31 11:17:09;;;;;;;6.80;3.20;;;6.50;99.90;;;;;;5074548;28;20083;-63
2024/01/31 11:19:43;;;;;;;7.38;3.67;;;6.50;99.90;;;;;;5056857;28;20056;-62
2024/01/31 11:22:10;;;;;;;6.40;3.15;;;6.50;99.90;;;;;;5074743;28;20049;-62
2024/01/31 11:24:42;;;;;;;7.18;3.47;;;6.50;99.90;;;;;;5074975;28;20052;-63
2024/01/31 11:27:08;;;;;;;7.63;3.63;;;6.60;99.90;;;;;;5074334;28;20048;-63
2024/01/31 11:29:34;;;;;;;5.97;2.92;;;6.60;99.90;;;;;;5074562;28;20087;-64
2024/01/31 11:32:01;;;;;;;8.13;3.65;;;6.60;99.90;;;;;;5056402;28;20062;-63
2024/01/31 11:34:27;;;;;;;7.07;3.47;;;6.60;99.90;;;;;;5056222;28;20044;-62
2024/01/31 11:36:52;;;;;;;6.57;2.87;;;6.60;99.90;;;;;;5073604;28;20383;-62
2024/01/31 11:39:18;;;;;;;6.50;3.30;;;6.70;99.90;;;;;;5073993;28;20056;-63
2024/01/31 11:41:43;;;;;;;6.40;3.07;;;6.70;99.90;;;;;;5056328;28;20048;-63
2024/01/31 11:44:09;;;;;;;6.40;2.83;;;6.70;99.90;;;;;;5074163;28;20090;-63
2024/01/31 11:46:35;;;;;;;5.90;2.70;;;6.70;99.90;;;;;;5056500;28;20051;-59
2024/01/31 11:49:00;;;;;;;6.50;2.80;;;6.70;99.90;;;;;;5073772;28;20041;-63
2024/01/31 11:51:26;;;;;;;4.83;2.40;;;6.70;99.90;;;;;;5073970;28;20127;-58
2024/01/31 11:53:52;;;;;;;6.00;2.70;;;6.80;99.90;;;;;;5074257;28;20471;-59
2024/01/31 11:56:18;;;;;;;5.83;2.53;;;6.70;99.90;;;;;;5073691;28;20049;-59
2024/01/31 11:58:44;;;;;;;5.13;2.37;;;6.70;99.90;;;;;;5073881;28;20052;-58
2024/01/31 12:01:09;;;;;;;6.17;2.53;;;6.80;99.90;;;;;;5056118;28;20048;-59
2024/01/31 12:03:36;;;;;;;4.67;2.27;;;6.80;99.90;;;;;;5073638;28;20056;-59
2024/01/31 12:06:04;;;;;;;5.18;2.30;;;6.80;99.90;;;;;;5073700;28;20395;-59
2024/01/31 12:08:33;;;;;;;5.25;2.20;;;6.80;99.90;;;;;;5073574;28;20060;-60
2024/01/31 12:10:59;;;;;;;5.28;2.30;;;6.80;99.90;;;;;;5055728;28;20040;-58
2024/01/31 12:13:24;;;;;;;6.70;2.90;;;6.80;99.90;;;;;;5073603;28;20053;-59
2024/01/31 12:15:50;;;;;;;5.23;2.43;;;6.80;99.90;;;;;;5073467;28;20079;-60
2024/01/31 12:18:16;;;;;;;6.57;2.90;;;6.80;99.90;;;;;;5073419;28;20052;-59
2024/01/31 12:20:42;;;;;;;5.38;2.70;;;6.90;99.90;;;;;;5073720;28;20089;-60
2024/01/31 12:23:08;;;;;;;5.43;2.77;;;6.80;99.90;;;;;;5073899;28;20445;-59
2024/01/31 12:25:34;;;;;;;6.63;2.53;;;6.80;99.90;;;;;;5055911;28;20048;-58
2024/01/31 12:28:03;;;;;;;5.50;2.60;;;6.80;99.90;;;;;;5073432;28;20052;-58
2024/01/31 12:30:29;;;;;;;5.43;2.72;;;6.80;99.90;;;;;;5055407;28;20044;-57
2024/01/31 12:32:54;;;;;;;6.17;2.93;;;6.80;99.90;;;;;;5073314;28;20106;-58
2024/01/31 12:35:20;;;;;;;4.80;2.40;;;6.80;99.90;;;;;;5073553;28;20076;-57
2024/01/31 12:37:46;;;;;;;5.27;2.80;;;6.80;99.90;;;;;;5073270;28;20044;-59
2024/01/31 12:40:12;;;;;;;7.60;2.80;;;6.80;99.90;;;;;;5073404;28;20082;-59
2024/01/31 12:42:38;;;;;;;6.47;2.90;;;6.80;99.90;;;;;;5073298;28;20056;-58
2024/01/31 12:45:04;;;;;;;7.93;2.87;;;6.80;99.90;;;;;;5073497;28;20048;-58
2024/01/31 12:47:30;;;;;;;6.20;2.90;;;6.80;99.90;;;;;;5073002;28;20041;-59
2024/01/31 12:49:56;;;;;;;5.37;3.00;;;6.80;99.90;;;;;;5076672;28;20050;-59
2024/01/31 12:52:24;;;;;;;6.00;2.70;;;6.80;99.90;;;;;;5077310;28;20399;-59
2024/01/31 12:54:51;;;;;;;5.40;2.95;;;6.80;99.90;;;;;;5077216;28;20057;-59